createdAt,value
2019-03-12T00:01:33.474Z,62.50
2019-03-12T00:03:38.658Z,62.20
2019-03-12T00:05:44.281Z,62.00
2019-03-12T00:07:50.054Z,61.70
2019-03-12T00:09:55.224Z,61.50
2019-03-12T00:12:00.206Z,61.30
2019-03-12T00:14:05.347Z,61.20
2019-03-12T00:16:10.345Z,61.10
2019-03-12T00:18:15.627Z,61.00
2019-03-12T00:20:21.400Z,60.90
2019-03-12T00:22:26.556Z,60.80
2019-03-12T00:24:31.993Z,60.60
2019-03-12T00:26:37.577Z,60.50
2019-03-12T00:28:42.745Z,60.40
2019-03-12T00:30:47.984Z,60.40
2019-03-12T00:32:55.756Z,60.40
2019-03-12T00:35:00.590Z,60.10
2019-03-12T00:37:05.800Z,59.90
2019-03-12T00:39:10.746Z,59.80
2019-03-12T00:41:15.618Z,59.80
2019-03-12T00:43:21.265Z,59.70
2019-03-12T00:45:26.411Z,59.80
2019-03-12T00:47:31.240Z,59.70
2019-03-12T00:49:36.752Z,59.80
2019-03-12T00:51:41.871Z,59.70
2019-03-12T00:53:47.320Z,59.70
2019-03-12T00:55:52.592Z,59.70
2019-03-12T00:57:58.061Z,59.70
2019-03-12T01:00:03.458Z,59.90
2019-03-12T01:02:08.767Z,59.90
2019-03-12T01:04:14.235Z,60.00
2019-03-12T01:06:19.477Z,60.10
2019-03-12T01:08:25.026Z,60.10
2019-03-12T01:10:30.413Z,60.10
2019-03-12T01:12:35.961Z,60.30
2019-03-12T01:14:40.898Z,60.40
2019-03-12T01:16:45.919Z,60.50
2019-03-12T01:18:50.850Z,60.60
2019-03-12T01:20:56.063Z,60.60
2019-03-12T01:23:00.907Z,60.40
2019-03-12T01:25:08.631Z,60.40
2019-03-12T01:27:13.495Z,60.50
2019-03-12T01:29:18.429Z,60.40
2019-03-12T01:31:23.744Z,60.60
2019-03-12T01:33:28.928Z,60.40
2019-03-12T01:35:33.949Z,60.50
2019-03-12T01:37:38.945Z,60.50
2019-03-12T01:39:44.607Z,60.50
2019-03-12T01:41:50.369Z,60.60
2019-03-12T01:43:55.818Z,61.30
2019-03-12T01:46:00.760Z,60.60
2019-03-12T01:48:05.844Z,60.50
2019-03-12T01:50:11.434Z,60.50
2019-03-12T01:52:16.339Z,60.60
2019-03-12T01:54:21.222Z,60.50
2019-03-12T01:56:26.437Z,60.60
2019-03-12T01:58:31.896Z,60.70
2019-03-12T02:00:45.910Z,60.70
2019-03-12T02:02:53.389Z,60.60
2019-03-12T02:05:01.261Z,60.60
2019-03-12T02:07:08.941Z,60.60
2019-03-12T02:09:15.924Z,60.50
2019-03-12T02:11:21.034Z,60.60
2019-03-12T02:13:26.726Z,60.70
2019-03-12T02:15:31.959Z,60.70
2019-03-12T02:17:37.373Z,60.90
2019-03-12T02:19:42.268Z,60.70
2019-03-12T02:21:48.326Z,60.80
2019-03-12T02:23:53.765Z,61.00
2019-03-12T02:25:59.040Z,61.00
2019-03-12T02:28:04.036Z,60.90
2019-03-12T02:30:12.439Z,60.90
2019-03-12T02:32:17.634Z,61.00
2019-03-12T02:34:23.386Z,61.10
2019-03-12T02:36:28.994Z,61.00
2019-03-12T02:38:34.479Z,61.00
2019-03-12T02:40:39.439Z,61.10
2019-03-12T02:42:44.736Z,61.10
2019-03-12T02:44:49.770Z,61.30
2019-03-12T02:46:55.102Z,61.30
2019-03-12T02:49:00.765Z,61.30
2019-03-12T02:51:06.518Z,61.50
2019-03-12T02:53:11.729Z,62.00
2019-03-12T02:55:16.943Z,61.60
2019-03-12T02:57:22.585Z,61.70
2019-03-12T02:59:27.713Z,61.70
2019-03-12T03:01:37.808Z,61.70
2019-03-12T03:03:43.319Z,61.80
2019-03-12T03:06:10.080Z,61.90
2019-03-12T03:08:15.645Z,61.90
2019-03-12T03:10:20.585Z,62.00
2019-03-12T03:12:25.482Z,62.10
2019-03-12T03:14:40.770Z,62.30
2019-03-12T03:16:46.041Z,62.20
2019-03-12T03:18:50.952Z,62.10
2019-03-12T03:20:55.819Z,62.00
2019-03-12T03:23:01.178Z,61.80
2019-03-12T03:25:08.360Z,61.90
2019-03-12T03:27:13.322Z,62.10
2019-03-12T03:29:18.897Z,62.00
2019-03-12T03:31:24.138Z,62.00
2019-03-12T03:33:29.132Z,62.20
2019-03-12T03:35:33.966Z,62.20
2019-03-12T03:37:39.582Z,62.30
2019-03-12T03:39:44.741Z,62.50
2019-03-12T03:41:50.308Z,62.20
2019-03-12T03:43:55.645Z,62.30
2019-03-12T03:46:00.977Z,62.30
2019-03-12T03:48:06.057Z,62.30
2019-03-12T03:50:11.368Z,62.30
2019-03-12T03:52:16.245Z,62.40
2019-03-12T03:54:21.271Z,62.50
2019-03-12T03:56:26.203Z,62.30
2019-03-12T03:58:31.752Z,62.30
2019-03-12T04:00:36.638Z,62.50
2019-03-12T04:02:41.502Z,62.40
2019-03-12T04:04:46.348Z,62.50
2019-03-12T04:06:51.829Z,62.50
2019-03-12T04:08:57.043Z,62.50
2019-03-12T04:11:01.910Z,62.50
2019-03-12T04:13:07.202Z,62.60
2019-03-12T04:15:12.707Z,62.70
2019-03-12T04:17:17.526Z,62.90
2019-03-12T04:19:22.765Z,62.90
2019-03-12T04:21:27.670Z,63.00
2019-03-12T04:23:32.622Z,63.00
2019-03-12T04:25:37.735Z,63.00
2019-03-12T04:27:43.086Z,63.00
2019-03-12T04:29:47.945Z,63.10
2019-03-12T04:31:52.917Z,63.00
2019-03-12T04:34:29.939Z,63.20
2019-03-12T04:36:54.054Z,63.40
2019-03-12T04:38:58.978Z,63.40
2019-03-12T04:41:03.904Z,63.40
2019-03-12T04:43:08.747Z,63.50
2019-03-12T04:45:15.671Z,63.50
2019-03-12T04:47:59.127Z,63.50
2019-03-12T04:50:04.489Z,63.50
2019-03-12T04:52:09.431Z,63.50
2019-03-12T04:54:14.330Z,63.50
2019-03-12T04:56:19.803Z,63.50
2019-03-12T04:58:25.770Z,63.50
2019-03-12T05:00:31.101Z,63.50
2019-03-12T05:02:35.943Z,63.50
2019-03-12T05:04:41.227Z,63.50
2019-03-12T05:06:46.389Z,63.50
2019-03-12T05:08:51.677Z,63.50
2019-03-12T05:10:56.891Z,63.50
2019-03-12T05:13:01.741Z,63.50
2019-03-12T05:15:10.203Z,63.50
2019-03-12T05:17:25.829Z,63.60
2019-03-12T05:19:30.930Z,63.90
2019-03-12T05:21:36.068Z,63.80
2019-03-12T05:23:41.638Z,63.80
2019-03-12T05:25:46.477Z,64.00
2019-03-12T05:27:51.655Z,64.00
2019-03-12T05:29:57.064Z,64.10
2019-03-12T05:32:01.913Z,64.10
2019-03-12T05:34:07.017Z,64.10
2019-03-12T05:36:12.149Z,64.20
2019-03-12T05:38:17.438Z,64.30
2019-03-12T05:40:22.274Z,64.30
2019-03-12T05:42:27.736Z,64.30
2019-03-12T05:44:33.254Z,64.40
2019-03-12T05:46:40.071Z,64.30
2019-03-12T05:48:45.039Z,64.20
2019-03-12T05:50:53.941Z,64.30
2019-03-12T05:53:14.421Z,64.30
2019-03-12T05:55:19.477Z,64.30
2019-03-12T05:57:24.766Z,64.40
2019-03-12T05:59:30.003Z,64.40
2019-03-12T06:01:35.128Z,64.50
2019-03-12T06:03:40.519Z,64.50
2019-03-12T06:05:45.665Z,64.50
2019-03-12T06:07:50.825Z,64.60
2019-03-12T06:09:56.498Z,64.60
2019-03-12T06:12:02.537Z,64.50
2019-03-12T06:16:16.815Z,64.50
2019-03-12T06:18:22.581Z,64.70
2019-03-12T06:20:28.214Z,64.90
2019-03-12T06:22:33.555Z,64.90
2019-03-12T06:24:38.918Z,65.00
2019-03-12T06:26:43.855Z,65.10
2019-03-12T06:28:49.025Z,65.20
2019-03-12T06:31:11.858Z,65.30
2019-03-12T06:33:24.298Z,65.30
2019-03-12T06:35:33.486Z,65.30
2019-03-12T06:37:47.490Z,65.40
2019-03-12T06:40:23.995Z,65.50
2019-03-12T06:42:54.803Z,65.60
2019-03-12T06:45:07.314Z,65.70
2019-03-12T06:47:37.640Z,65.80
2019-03-12T06:49:48.199Z,66.00
2019-03-12T06:52:12.820Z,65.90
2019-03-12T06:54:27.787Z,66.10
2019-03-12T06:56:58.129Z,66.20
2019-03-12T06:59:25.074Z,66.20
2019-03-12T07:01:42.396Z,65.60
2019-03-12T07:04:05.168Z,66.20
2019-03-12T07:06:28.192Z,66.40
2019-03-12T07:08:49.446Z,66.50
2019-03-12T07:11:03.864Z,66.40
2019-03-12T07:13:27.059Z,66.50
2019-03-12T07:15:40.821Z,66.70
2019-03-12T07:18:00.474Z,66.80
2019-03-12T07:20:27.063Z,66.80
2019-03-12T07:22:54.000Z,66.80
2019-03-12T07:25:04.365Z,67.20
2019-03-12T07:27:30.036Z,67.50
2019-03-12T07:29:49.615Z,67.60
2019-03-12T07:32:14.083Z,67.80
2019-03-12T07:34:37.039Z,67.80
2019-03-12T07:36:53.271Z,67.90
2019-03-12T07:39:05.932Z,68.00
2019-03-12T07:41:35.782Z,68.00
2019-03-12T07:44:03.216Z,68.10
2019-03-12T07:46:30.278Z,68.80
2019-03-12T07:48:54.496Z,68.30
2019-03-12T07:51:12.942Z,68.60
2019-03-12T07:53:29.250Z,69.00
2019-03-12T07:56:05.413Z,69.00
2019-03-12T07:58:36.237Z,69.00
2019-03-12T08:01:03.288Z,69.10
2019-03-12T08:03:19.460Z,69.00
2019-03-12T08:05:39.145Z,69.10
2019-03-12T08:08:09.352Z,69.30
2019-03-12T08:10:26.114Z,69.40
2019-03-12T08:12:40.524Z,69.50
2019-03-12T08:15:02.759Z,69.50
2019-03-12T08:17:25.910Z,69.30
2019-03-12T08:19:44.175Z,69.30
2019-03-12T08:22:14.095Z,69.00
2019-03-12T08:24:38.027Z,68.60
2019-03-12T08:26:53.117Z,68.20
2019-03-12T08:29:04.001Z,68.80
2019-03-12T08:31:26.150Z,67.80
2019-03-12T08:33:50.755Z,67.30
2019-03-12T08:36:20.755Z,67.10
2019-03-12T08:38:41.961Z,67.00
2019-03-12T08:40:57.438Z,66.90
2019-03-12T08:43:07.608Z,66.90
2019-03-12T08:45:49.924Z,66.70
2019-03-12T08:48:02.373Z,66.40
2019-03-12T08:50:16.595Z,66.30
2019-03-12T08:52:43.230Z,66.60
2019-03-12T08:55:25.613Z,66.30
2019-03-12T08:57:41.355Z,65.90
2019-03-12T09:00:11.625Z,66.10
2019-03-12T09:02:41.920Z,65.90
2019-03-12T09:05:09.474Z,66.00
2019-03-12T09:07:46.036Z,66.20
2019-03-12T09:09:57.034Z,65.60
2019-03-12T09:12:19.609Z,65.50
2019-03-12T09:14:42.674Z,65.70
2019-03-12T09:17:05.320Z,65.80
2019-03-12T09:19:29.567Z,65.50
2019-03-12T09:21:52.283Z,65.70
2019-03-12T09:24:08.965Z,65.70
2019-03-12T09:26:39.253Z,65.60
2019-03-12T09:29:03.770Z,65.20
2019-03-12T09:31:24.294Z,64.90
2019-03-12T09:33:48.158Z,64.40
2019-03-12T09:36:15.279Z,64.20
2019-03-12T09:38:28.545Z,64.50
2019-03-12T09:40:51.279Z,64.60
2019-03-12T09:43:14.130Z,64.30
2019-03-12T09:45:41.557Z,64.20
2019-03-12T09:47:53.293Z,63.70
2019-03-12T09:50:15.186Z,63.30
2019-03-12T09:52:39.393Z,63.00
2019-03-12T09:55:04.994Z,62.70
2019-03-12T09:57:15.839Z,62.60
2019-03-12T09:59:40.413Z,62.50
2019-03-12T10:02:04.619Z,62.20
2019-03-12T10:04:26.001Z,62.30
2019-03-12T10:06:43.604Z,61.90
2019-03-12T10:09:19.790Z,61.90
2019-03-12T10:11:41.815Z,60.90
2019-03-12T10:14:11.611Z,61.00
2019-03-12T10:16:34.694Z,60.90
2019-03-12T10:19:03.522Z,60.20
2019-03-12T10:21:29.077Z,59.90
2019-03-12T10:23:45.158Z,59.40
2019-03-12T10:26:09.107Z,59.10
2019-03-12T10:28:32.204Z,58.90
2019-03-12T10:30:58.181Z,58.70
2019-03-12T10:33:13.245Z,58.70
2019-03-12T10:35:28.087Z,58.90
2019-03-12T10:37:55.162Z,58.80
2019-03-12T10:40:14.885Z,58.50
2019-03-12T10:42:31.944Z,58.30
2019-03-12T10:44:47.016Z,58.30
2019-03-12T10:46:58.709Z,58.20
2019-03-12T10:49:04.022Z,58.00
2019-03-12T10:51:09.476Z,57.80
2019-03-12T10:53:14.923Z,57.50
2019-03-12T10:55:20.138Z,57.30
2019-03-12T10:57:25.669Z,57.20
2019-03-12T10:59:31.107Z,56.80
2019-03-12T11:01:37.204Z,56.40
2019-03-12T11:03:42.084Z,56.10
2019-03-12T11:05:47.468Z,56.00
2019-03-12T11:07:53.203Z,55.70
2019-03-12T11:09:58.147Z,55.50
2019-03-12T11:12:03.274Z,55.10
2019-03-12T11:14:08.713Z,55.20
2019-03-12T11:16:13.734Z,55.40
2019-03-12T11:18:18.606Z,54.80
2019-03-12T11:20:23.714Z,53.80
2019-03-12T11:22:28.720Z,53.80
2019-03-12T11:24:33.613Z,53.70
2019-03-12T11:26:38.573Z,53.60
2019-03-12T11:28:43.863Z,53.20
2019-03-12T11:30:49.202Z,53.10
2019-03-12T11:32:54.482Z,52.50
2019-03-12T11:34:59.460Z,52.50
2019-03-12T11:37:04.598Z,52.60
2019-03-12T11:39:10.165Z,52.60
2019-03-12T11:41:15.156Z,52.10
2019-03-12T11:43:20.420Z,52.10
2019-03-12T11:45:36.125Z,51.40
2019-03-12T11:47:32.717Z,51.40
2019-03-12T11:49:38.295Z,51.50
2019-03-12T11:51:43.635Z,50.50
2019-03-12T11:53:48.875Z,50.50
2019-03-12T11:55:54.306Z,50.50
2019-03-12T11:57:59.567Z,50.30
2019-03-12T12:00:06.408Z,49.50
2019-03-12T12:02:11.847Z,49.00
2019-03-12T12:04:17.072Z,49.50
2019-03-12T12:06:22.836Z,49.30
2019-03-12T12:08:27.777Z,49.40
2019-03-12T12:10:32.983Z,49.30
2019-03-12T12:12:40.197Z,48.90
2019-03-12T12:14:44.705Z,48.50
2019-03-12T12:16:49.943Z,48.40
2019-03-12T12:18:55.131Z,48.90
2019-03-12T12:21:00.100Z,49.30
2019-03-12T12:23:05.668Z,49.40
2019-03-12T12:25:12.318Z,49.20
2019-03-12T12:27:17.191Z,48.80
2019-03-12T12:29:22.320Z,47.90
2019-03-12T12:31:27.674Z,47.30
2019-03-12T12:33:32.917Z,47.60
2019-03-12T12:35:37.902Z,47.50
2019-03-12T12:37:43.103Z,47.20
2019-03-12T12:39:48.554Z,47.20
2019-03-12T12:41:54.064Z,46.50
2019-03-12T12:43:59.311Z,46.50
2019-03-12T12:46:04.236Z,46.20
2019-03-12T12:48:09.666Z,46.80
2019-03-12T12:50:15.785Z,46.60
2019-03-12T12:52:21.157Z,46.20
2019-03-12T12:54:26.609Z,46.10
2019-03-12T12:56:32.157Z,45.80
2019-03-12T12:58:37.740Z,45.90
2019-03-12T13:00:43.387Z,46.00
2019-03-12T13:02:48.961Z,46.10
2019-03-12T13:04:54.126Z,46.10
2019-03-12T13:06:59.104Z,45.60
2019-03-12T13:09:05.712Z,45.60
2019-03-12T13:11:10.766Z,45.50
2019-03-12T13:13:16.053Z,45.30
2019-03-12T13:15:21.144Z,45.50
2019-03-12T13:17:26.151Z,45.10
2019-03-12T13:19:31.222Z,45.10
2019-03-12T13:21:36.145Z,45.00
2019-03-12T13:23:41.099Z,45.30
2019-03-12T13:25:45.980Z,45.50
2019-03-12T13:27:51.071Z,45.80
2019-03-12T13:29:56.763Z,45.50
2019-03-12T13:32:13.079Z,45.60
2019-03-12T13:34:08.357Z,45.70
2019-03-12T13:36:16.617Z,45.80
2019-03-12T13:38:21.973Z,45.70
2019-03-12T13:40:27.767Z,45.50
2019-03-12T13:42:33.386Z,45.50
2019-03-12T13:44:38.482Z,45.60
2019-03-12T13:46:43.535Z,45.30
2019-03-12T13:48:48.477Z,45.40
2019-03-12T13:50:53.635Z,45.50
2019-03-12T13:52:58.806Z,45.60
2019-03-12T13:55:04.312Z,45.20
2019-03-12T13:57:09.630Z,45.10
2019-03-12T13:59:14.786Z,45.40
2019-03-12T14:01:19.854Z,45.10
2019-03-12T14:03:25.110Z,45.10
2019-03-12T14:05:30.344Z,45.50
2019-03-12T14:07:35.987Z,45.10
2019-03-12T14:09:40.987Z,44.80
2019-03-12T14:11:47.809Z,44.70
2019-03-12T14:13:53.392Z,44.70
2019-03-12T14:15:59.381Z,45.00
2019-03-12T14:18:05.305Z,44.90
2019-03-12T14:20:40.386Z,44.70
2019-03-12T14:22:50.124Z,44.50
2019-03-12T14:24:59.394Z,44.40
2019-03-12T14:27:04.762Z,44.10
2019-03-12T14:29:09.907Z,44.30
2019-03-12T14:31:15.564Z,44.70
2019-03-12T14:33:21.281Z,44.30
2019-03-12T14:35:26.225Z,44.40
2019-03-12T14:37:31.258Z,44.00
2019-03-12T14:39:36.706Z,43.90
2019-03-12T14:41:42.076Z,43.80
2019-03-12T14:43:47.808Z,43.80
2019-03-12T14:45:53.505Z,43.40
2019-03-12T14:47:59.041Z,43.00
2019-03-12T14:50:04.920Z,42.60
2019-03-12T14:52:24.725Z,42.90
2019-03-12T14:54:33.662Z,42.90
2019-03-12T14:56:39.113Z,42.70
2019-03-12T14:58:44.155Z,42.80
2019-03-12T15:00:49.193Z,42.00
2019-03-12T15:02:55.074Z,42.50
2019-03-12T15:05:00.125Z,42.20
2019-03-12T15:07:05.815Z,42.00
2019-03-12T15:09:14.328Z,42.10
2019-03-12T15:11:19.270Z,42.30
2019-03-12T15:13:24.270Z,41.40
2019-03-12T15:15:29.202Z,42.20
2019-03-12T15:17:35.179Z,42.20
2019-03-12T15:19:40.602Z,42.30
2019-03-12T15:21:45.712Z,42.00
2019-03-12T15:23:51.417Z,42.10
2019-03-12T15:25:56.764Z,42.20
2019-03-12T15:28:01.971Z,42.00
2019-03-12T15:30:12.138Z,42.10
2019-03-12T15:32:17.075Z,42.20
2019-03-12T15:34:22.186Z,42.40
2019-03-12T15:36:27.643Z,42.30
2019-03-12T15:38:33.408Z,42.10
2019-03-12T15:40:38.977Z,42.20
2019-03-12T15:42:43.986Z,42.30
2019-03-12T15:44:49.706Z,42.40
2019-03-12T15:46:54.687Z,42.40
2019-03-12T15:48:59.589Z,43.10
2019-03-12T15:51:04.695Z,42.10
2019-03-12T15:53:10.007Z,42.10
2019-03-12T15:55:15.007Z,42.40
2019-03-12T15:57:19.865Z,42.20
2019-03-12T15:59:24.967Z,42.50
2019-03-12T16:01:29.840Z,42.60
2019-03-12T16:03:35.045Z,42.40
2019-03-12T16:05:40.031Z,42.50
2019-03-12T16:07:45.843Z,42.60
2019-03-12T16:09:50.700Z,42.20
2019-03-12T16:11:56.690Z,42.10
2019-03-12T16:14:01.570Z,42.00
2019-03-12T16:16:06.826Z,41.90
2019-03-12T16:18:14.454Z,42.00
2019-03-12T16:20:18.707Z,41.70
2019-03-12T16:22:24.306Z,42.20
2019-03-12T16:24:29.304Z,41.90
2019-03-12T16:26:34.424Z,41.50
2019-03-12T16:28:40.410Z,41.40
2019-03-12T16:30:46.076Z,41.50
2019-03-12T16:32:51.302Z,41.60
2019-03-12T16:34:56.790Z,41.70
2019-03-12T16:37:02.013Z,41.80
2019-03-12T16:39:08.221Z,41.80
2019-03-12T16:41:13.552Z,41.50
2019-03-12T16:43:21.988Z,41.60
2019-03-12T16:45:25.887Z,41.00
2019-03-12T16:47:31.196Z,41.30
2019-03-12T16:49:36.157Z,41.20
2019-03-12T16:51:41.773Z,41.40
2019-03-12T16:53:47.340Z,41.40
2019-03-12T16:55:52.892Z,41.70
2019-03-12T16:57:58.111Z,41.60
2019-03-12T17:00:08.219Z,41.50
2019-03-12T17:02:10.134Z,41.70
2019-03-12T17:04:15.793Z,42.00
2019-03-12T17:06:21.151Z,41.90
2019-03-12T17:08:26.468Z,41.60
2019-03-12T17:10:31.703Z,41.50
2019-03-12T17:12:36.661Z,41.00
2019-03-12T17:14:41.852Z,41.30
2019-03-12T17:16:50.309Z,41.50
2019-03-12T17:18:55.284Z,41.40
2019-03-12T17:21:00.580Z,41.30
2019-03-12T17:23:05.483Z,41.10
2019-03-12T17:25:11.144Z,41.20
2019-03-12T17:27:16.136Z,41.30
2019-03-12T17:29:21.914Z,41.00
2019-03-12T17:31:27.162Z,40.80
2019-03-12T17:33:32.101Z,41.20
2019-03-12T17:35:37.128Z,40.90
2019-03-12T17:37:42.241Z,40.90
2019-03-12T17:39:47.898Z,40.80
2019-03-12T17:41:55.004Z,41.20
2019-03-12T17:43:59.899Z,41.10
2019-03-12T17:46:05.293Z,40.80
2019-03-12T17:48:10.926Z,40.80
2019-03-12T17:50:16.247Z,40.80
2019-03-12T17:52:21.891Z,40.50
2019-03-12T17:54:27.132Z,40.40
2019-03-12T17:56:32.843Z,40.40
2019-03-12T17:58:38.132Z,40.00
2019-03-12T18:00:44.320Z,40.30
2019-03-12T18:02:49.290Z,40.20
2019-03-12T18:04:54.687Z,40.00
2019-03-12T18:07:00.209Z,40.00
2019-03-12T18:09:08.758Z,39.60
2019-03-12T18:11:14.055Z,39.50
2019-03-12T18:13:19.547Z,39.70
2019-03-12T18:15:25.366Z,39.50
2019-03-12T18:17:30.630Z,39.50
2019-03-12T18:19:35.935Z,39.90
2019-03-12T18:21:41.209Z,40.00
2019-03-12T18:23:46.499Z,39.80
2019-03-12T18:25:51.631Z,39.70
2019-03-12T18:27:56.736Z,39.70
2019-03-12T18:30:01.960Z,39.40
2019-03-12T18:32:07.776Z,39.40
2019-03-12T18:34:15.943Z,39.40
2019-03-12T18:36:21.095Z,39.20
2019-03-12T18:38:26.157Z,38.80
2019-03-12T18:40:31.355Z,39.10
2019-03-12T18:42:36.568Z,39.40
2019-03-12T18:44:41.863Z,39.30
2019-03-12T18:46:46.717Z,39.20
2019-03-12T18:48:52.103Z,38.70
2019-03-12T18:50:57.415Z,38.80
2019-03-12T18:53:02.998Z,38.90
2019-03-12T18:55:09.619Z,38.70
2019-03-12T18:57:14.647Z,38.60
2019-03-12T18:59:19.875Z,38.70
2019-03-12T19:01:24.780Z,38.80
2019-03-12T19:03:29.995Z,38.80
2019-03-12T19:05:35.141Z,39.00
2019-03-12T19:07:40.414Z,39.00
2019-03-12T19:09:45.966Z,38.90
2019-03-12T19:11:51.231Z,39.00
2019-03-12T19:13:56.502Z,38.90
2019-03-12T19:16:02.128Z,38.70
2019-03-12T19:18:08.362Z,38.60
2019-03-12T19:20:13.690Z,38.00
2019-03-12T19:22:19.032Z,38.20
2019-03-12T19:24:24.496Z,38.20
2019-03-12T19:26:29.942Z,37.80
2019-03-12T19:28:34.973Z,37.60
2019-03-12T19:30:41.477Z,38.00
2019-03-12T19:32:56.375Z,38.10
2019-03-12T19:35:01.610Z,38.20
2019-03-12T19:37:07.225Z,38.20
2019-03-12T19:39:14.170Z,37.80
2019-03-12T19:41:19.426Z,37.70
2019-03-12T19:43:25.017Z,38.20
2019-03-12T19:45:30.501Z,38.30
2019-03-12T19:47:35.625Z,38.20
2019-03-12T19:49:41.010Z,38.10
2019-03-12T19:51:46.417Z,38.30
2019-03-12T19:53:51.776Z,38.70
2019-03-12T19:55:56.833Z,39.10
2019-03-12T19:58:12.607Z,40.00
2019-03-12T20:00:20.069Z,41.30
2019-03-12T20:02:25.643Z,41.70
2019-03-12T20:04:30.685Z,41.90
2019-03-12T20:06:36.493Z,42.70
2019-03-12T20:08:41.802Z,43.00
2019-03-12T20:12:08.895Z,43.20
2019-03-12T20:15:16.665Z,43.60
2019-03-12T20:18:17.188Z,43.80
2019-03-12T20:24:01.433Z,44.10
2019-03-12T20:27:09.872Z,44.90
2019-03-12T20:30:16.977Z,45.00
2019-03-12T20:33:58.846Z,45.10
2019-03-12T20:36:57.335Z,45.30
2019-03-12T20:39:56.660Z,45.60
2019-03-12T20:42:53.343Z,45.60
2019-03-12T20:45:40.663Z,45.60
2019-03-12T20:48:40.113Z,46.00
2019-03-12T20:52:01.010Z,46.20
2019-03-12T20:55:14.690Z,46.60
2019-03-12T20:58:20.851Z,46.70
2019-03-12T21:01:43.023Z,47.30
2019-03-12T21:04:50.162Z,47.50
2019-03-12T21:08:00.402Z,48.10
2019-03-12T21:11:12.939Z,48.20
2019-03-12T21:14:27.326Z,48.10
2019-03-12T21:17:23.454Z,48.20
2019-03-12T21:20:33.096Z,48.20
2019-03-12T21:23:22.403Z,48.80
2019-03-12T21:26:10.055Z,47.90
2019-03-12T21:28:54.052Z,48.00
2019-03-12T21:30:59.856Z,48.20
2019-03-12T21:33:14.779Z,48.40
2019-03-12T21:35:11.998Z,48.80
2019-03-12T21:37:17.276Z,49.20
2019-03-12T21:39:22.351Z,49.40
2019-03-12T21:41:27.384Z,50.00
2019-03-12T21:43:33.425Z,50.40
2019-03-12T21:45:39.012Z,51.10
2019-03-12T21:47:44.363Z,52.30
2019-03-12T21:49:49.813Z,52.90
2019-03-12T21:51:55.392Z,53.60
2019-03-12T21:54:00.413Z,54.40
2019-03-12T21:56:05.495Z,54.90
2019-03-12T21:58:10.628Z,54.60
2019-03-12T22:00:16.518Z,55.60
2019-03-12T22:02:21.966Z,54.50
2019-03-12T22:04:27.082Z,54.10
2019-03-12T22:06:32.480Z,53.90
2019-03-12T22:08:37.674Z,54.00
2019-03-12T22:10:42.646Z,54.30
2019-03-12T22:12:47.590Z,54.40
2019-03-12T22:14:52.574Z,54.30
2019-03-12T22:17:00.946Z,54.20
2019-03-12T22:19:06.380Z,54.00
2019-03-12T22:21:13.059Z,54.30
2019-03-12T22:23:31.635Z,54.40
2019-03-12T22:25:36.504Z,54.60
2019-03-12T22:27:41.798Z,55.30
2019-03-12T22:29:47.402Z,54.50
2019-03-12T22:31:52.292Z,54.50
2019-03-12T22:33:57.204Z,54.40
2019-03-12T22:36:02.797Z,54.40
2019-03-12T22:38:08.875Z,54.60
2019-03-12T22:40:13.941Z,54.70
2019-03-12T22:42:19.430Z,54.80
2019-03-12T22:44:24.581Z,54.70
2019-03-12T22:46:29.863Z,54.80
2019-03-12T22:48:35.447Z,54.90
2019-03-12T22:50:40.651Z,54.90
2019-03-12T22:52:45.806Z,55.00
2019-03-12T22:54:51.036Z,55.20
2019-03-12T22:56:56.433Z,55.40
2019-03-12T22:59:01.368Z,55.40
2019-03-12T23:01:06.749Z,55.50
2019-03-12T23:03:11.809Z,55.60
2019-03-12T23:05:17.085Z,56.00
2019-03-12T23:07:21.982Z,56.00
2019-03-12T23:09:27.460Z,55.80
2019-03-12T23:11:32.396Z,55.80
2019-03-12T23:13:37.654Z,55.80
2019-03-12T23:15:43.040Z,56.00
2019-03-12T23:17:48.095Z,56.70
2019-03-12T23:19:53.043Z,56.30
2019-03-12T23:21:58.529Z,56.30
2019-03-12T23:24:03.672Z,56.10
2019-03-12T23:26:09.205Z,56.90
2019-03-12T23:28:14.433Z,57.00
2019-03-12T23:30:19.506Z,57.20
2019-03-12T23:32:24.948Z,57.10
2019-03-12T23:34:29.993Z,57.20
2019-03-12T23:36:34.916Z,57.20
2019-03-12T23:38:39.933Z,57.30
2019-03-12T23:40:44.934Z,57.30
2019-03-12T23:42:50.091Z,57.30
2019-03-12T23:44:55.165Z,57.20
2019-03-12T23:47:00.612Z,57.30
2019-03-12T23:49:05.461Z,57.20
2019-03-12T23:51:11.026Z,57.10
2019-03-12T23:53:15.992Z,57.10
2019-03-12T23:55:21.542Z,57.20
2019-03-12T23:57:26.940Z,57.40
2019-03-12T23:59:32.157Z,57.40
